This is the latest recevied weather packets stored in our database for station/object OE6JVE-13. If no packets are shown the sender has not sent any weather packets the latest 1 day(s).
| Time | Temp. | Humidity | Pressure | Rain* | Wind** | Luminosity | Snow |
|---|---|---|---|---|---|---|---|
| 1778007345 | 16.11° C | 61% | 1002.8 hPa | 0 mm | 0.45 m/s, 180° | - | - |
| 1778006754 | 16.67° C | 61% | 1002.8 hPa | 0 mm | 3.13 m/s, 201° | - | - |
| 1778006162 | 16.11° C | 62% | 1002.9 hPa | 0 mm | 2.68 m/s, 193° | - | - |
| 1778005569 | 16.11° C | 61% | 1002.9 hPa | 0 mm | 1.34 m/s, 237° | - | - |
| 1778004978 | 16.67° C | 60% | 1003 hPa | 0 mm | 2.68 m/s, 159° | - | - |
| 1778004320 | 16.67° C | 60% | 1003 hPa | 0 mm | 2.24 m/s, 180° | - | - |
| 1778003728 | 16.67° C | 60% | 1002.8 hPa | 0 mm | 2.24 m/s, 201° | - | - |
| 1778003135 | 16.67° C | 59% | 1002.9 hPa | 0 mm | 3.13 m/s, 227° | - | - |
| 1778002544 | 17.22° C | 57% | 1002.9 hPa | 0 mm | 3.13 m/s, 180° | - | - |
| 1778001951 | 17.22° C | 53% | 1003 hPa | 0 mm | 2.68 m/s, 180° | - | - |
| 1778001359 | 17.78° C | 52% | 1002.9 hPa | 0 mm | 3.13 m/s, 189° | - | - |
| 1778000767 | 17.78° C | 52% | 1003.1 hPa | 0 mm | 3.13 m/s, 177° | - | - |
| 1778000175 | 17.78° C | 51% | 1003 hPa | 0 mm | 4.02 m/s, 215° | - | - |
| 1777999518 | 18.33° C | 51% | 1003.2 hPa | 0 mm | 3.13 m/s, 198° | - | - |
| 1777998925 | 18.33° C | 51% | 1003.2 hPa | 0 mm | 3.58 m/s, 177° | - | - |
| 1777998333 | 18.89° C | 50% | 1003.3 hPa | 0 mm | 1.79 m/s, 186° | - | - |
| 1777997741 | 18.89° C | 49% | 1003.3 hPa | 0 mm | 2.68 m/s, 229° | - | - |
| 1777997149 | 19.44° C | 46% | 1003.4 hPa | 0 mm | 1.79 m/s, 180° | - | - |
| 1777996557 | 20.56° C | 44% | 1003.5 hPa | 0 mm | 2.68 m/s, 210° | - | - |
| 1777995965 | 21.11° C | 43% | 1003.3 hPa | 0 mm | 1.79 m/s, 177° | - | - |
| 1777995373 | 20° C | 45% | 1003.2 hPa | 0 mm | 3.13 m/s, 201° | - | - |
| 1777994715 | 20° C | 45% | 1003.3 hPa | 0 mm | 2.68 m/s, 187° | - | - |
| 1777994123 | 19.44° C | 44% | 1003.3 hPa | 0 mm | 2.68 m/s, 180° | - | - |
| 1777993531 | 19.44° C | 44% | 1003.5 hPa | 0 mm | 2.24 m/s, 212° | - | - |
| 1777992939 | 20° C | 43% | 1003.5 hPa | 0 mm | 3.13 m/s, 185° | - | - |
* Rain latest hour (hover to see other rain measurements)
** Current wind speed in m/s (hover to see current wind gust speed)